createdAt,value
2024-02-11T00:01:19.646Z,12.60
2024-02-11T00:06:41.614Z,13.23
2024-02-11T00:12:06.400Z,12.27
2024-02-11T00:17:28.331Z,12.35
2024-02-11T00:22:50.526Z,13.57
2024-02-11T00:28:14.452Z,13.50
2024-02-11T00:33:36.342Z,13.68
2024-02-11T00:38:58.219Z,14.95
2024-02-11T00:44:20.370Z,15.65
2024-02-11T00:49:42.158Z,17.10
2024-02-11T00:55:04.106Z,16.42
2024-02-11T01:00:25.935Z,18.23
2024-02-11T01:05:47.804Z,16.35
2024-02-11T01:11:09.906Z,18.60
2024-02-11T01:16:31.830Z,17.38
2024-02-11T01:21:55.473Z,17.23
2024-02-11T01:27:17.334Z,17.77
2024-02-11T01:32:40.125Z,19.65
2024-02-11T01:38:02.145Z,19.48
2024-02-11T01:43:24.475Z,18.88
2024-02-11T01:48:46.572Z,18.90
2024-02-11T01:54:08.318Z,19.25
2024-02-11T01:59:33.715Z,19.30
2024-02-11T02:04:56.092Z,19.75
2024-02-11T02:10:17.970Z,20.90
2024-02-11T02:15:39.823Z,21.83
2024-02-11T02:21:08.045Z,20.67
2024-02-11T02:26:29.803Z,21.80
2024-02-11T02:31:51.594Z,21.85
2024-02-11T02:37:13.732Z,22.98
2024-02-11T02:42:35.501Z,21.95
2024-02-11T02:47:57.327Z,23.52
2024-02-11T02:53:19.053Z,22.83
2024-02-11T02:58:42.410Z,21.90
2024-02-11T03:04:04.622Z,20.73
2024-02-11T03:09:26.401Z,20.42
2024-02-11T03:14:50.470Z,21.38
2024-02-11T03:20:15.924Z,20.73
2024-02-11T03:25:37.999Z,20.83
2024-02-11T03:31:00.558Z,20.35
2024-02-11T03:36:22.205Z,18.75
2024-02-11T03:41:43.927Z,17.42
2024-02-11T03:47:05.823Z,17.60
2024-02-11T03:52:27.559Z,18.33
2024-02-11T03:57:49.274Z,16.83
2024-02-11T04:03:12.384Z,17.95
2024-02-11T04:08:36.068Z,17.67
2024-02-11T04:13:57.887Z,17.88
2024-02-11T04:19:22.116Z,18.60
2024-02-11T04:24:47.158Z,18.27
2024-02-11T04:30:13.980Z,19.07
2024-02-11T04:35:37.055Z,18.15
2024-02-11T04:41:01.917Z,19.17
2024-02-11T04:46:24.189Z,18.40
2024-02-11T04:51:45.762Z,19.63
2024-02-11T04:57:08.060Z,18.45
2024-02-11T05:02:29.774Z,18.45
2024-02-11T05:07:51.541Z,18.48
2024-02-11T05:13:14.952Z,18.20
2024-02-11T05:18:40.282Z,18.55
2024-02-11T05:24:02.518Z,19.10
2024-02-11T05:29:25.378Z,18.50
2024-02-11T05:34:47.154Z,17.92
2024-02-11T05:40:10.806Z,18.50
2024-02-11T05:45:33.821Z,19.83
2024-02-11T05:50:55.606Z,19.27
2024-02-11T05:56:17.213Z,18.38
2024-02-11T06:01:39.038Z,19.17
2024-02-11T06:07:01.022Z,19.20
2024-02-11T06:12:22.789Z,20.17
2024-02-11T06:17:44.598Z,19.55
2024-02-11T06:23:09.569Z,21.08
2024-02-11T06:28:31.441Z,19.33
2024-02-11T06:33:54.851Z,20.67
2024-02-11T06:39:16.701Z,20.05
2024-02-11T06:44:42.655Z,19.63
2024-02-11T06:50:05.874Z,19.88
2024-02-11T06:55:27.680Z,19.85
2024-02-11T07:00:49.496Z,20.13
2024-02-11T07:06:12.403Z,21.10
2024-02-11T07:11:35.054Z,21.02
2024-02-11T07:16:58.041Z,20.75
2024-02-11T07:22:20.181Z,21.27
2024-02-11T07:27:41.913Z,22.00
2024-02-11T07:33:04.020Z,21.05
2024-02-11T07:38:27.524Z,21.05
2024-02-11T07:43:50.993Z,21.38
2024-02-11T07:49:14.443Z,21.55
2024-02-11T07:54:36.200Z,21.52
2024-02-11T07:59:59.553Z,22.83
2024-02-11T08:05:23.905Z,22.90
2024-02-11T08:10:46.939Z,23.67
2024-02-11T08:16:12.265Z,22.45
2024-02-11T08:21:34.048Z,23.13
2024-02-11T08:26:55.821Z,22.77
2024-02-11T08:32:17.489Z,22.83
2024-02-11T08:37:39.902Z,24.63
2024-02-11T08:43:02.763Z,25.80
2024-02-11T08:48:24.485Z,25.48
2024-02-11T08:53:46.288Z,25.48
2024-02-11T08:59:08.080Z,23.20
2024-02-11T09:04:30.023Z,21.80
2024-02-11T09:09:51.768Z,19.63
2024-02-11T09:15:18.203Z,19.30
2024-02-11T09:20:40.984Z,17.52
2024-02-11T09:26:04.034Z,17.20
2024-02-11T09:31:26.513Z,18.05
2024-02-11T09:36:48.421Z,18.30
2024-02-11T09:42:21.141Z,17.05
2024-02-11T09:47:46.882Z,18.77
2024-02-11T09:53:12.690Z,19.02
2024-02-11T10:04:01.148Z,19.02
2024-02-11T10:09:23.439Z,18.73
2024-02-11T10:14:56.216Z,18.30
2024-02-11T10:20:18.958Z,19.25
2024-02-11T10:25:41.161Z,19.23
2024-02-11T10:31:03.092Z,17.40
2024-02-11T10:36:25.930Z,19.10
2024-02-11T10:41:47.683Z,17.60
2024-02-11T10:47:10.238Z,17.55
2024-02-11T10:52:38.046Z,18.55
2024-02-11T10:58:03.109Z,18.00
2024-02-11T11:03:29.641Z,17.65
2024-02-11T11:08:52.371Z,16.63
2024-02-11T11:14:14.239Z,17.75
2024-02-11T11:19:37.056Z,16.92
2024-02-11T11:24:59.271Z,16.05
2024-02-11T11:30:21.335Z,15.95
2024-02-11T11:35:43.181Z,15.05
2024-02-11T11:41:07.998Z,16.27
2024-02-11T11:46:33.397Z,15.82
2024-02-11T11:51:59.897Z,14.02
2024-02-11T11:57:22.426Z,15.68
2024-02-11T12:02:44.173Z,14.23
2024-02-11T12:08:06.528Z,13.95
2024-02-11T12:13:32.672Z,14.43
2024-02-11T12:18:54.507Z,13.35
2024-02-11T12:24:16.862Z,15.13
2024-02-11T12:29:39.658Z,14.93
2024-02-11T12:35:02.359Z,14.88
2024-02-11T12:40:24.742Z,14.20
2024-02-11T12:45:46.557Z,14.82
2024-02-11T12:51:12.965Z,14.93
2024-02-11T12:56:34.823Z,15.50
2024-02-11T13:01:57.557Z,14.48
2024-02-11T13:07:19.142Z,15.63
2024-02-11T13:12:41.123Z,14.32
2024-02-11T13:18:03.039Z,13.63
2024-02-11T13:23:25.343Z,14.35
2024-02-11T13:28:47.603Z,13.05
2024-02-11T13:34:09.610Z,12.43
2024-02-11T13:39:33.862Z,12.85
2024-02-11T13:44:55.927Z,12.32
2024-02-11T13:50:17.562Z,11.48
2024-02-11T13:55:40.737Z,12.30
2024-02-11T14:01:02.559Z,12.60
2024-02-11T14:06:24.235Z,11.95
2024-02-11T14:11:45.968Z,12.40
2024-02-11T14:17:07.961Z,11.65
2024-02-11T14:22:29.683Z,12.15
2024-02-11T14:27:52.564Z,10.27
2024-02-11T14:33:14.188Z,11.48
2024-02-11T14:38:41.301Z,12.32
2024-02-11T14:44:03.994Z,11.05
2024-02-11T14:49:26.222Z,10.63
2024-02-11T14:54:48.350Z,11.10
2024-02-11T15:00:12.429Z,10.77
2024-02-11T15:05:34.276Z,11.55
2024-02-11T15:10:56.936Z,11.27
2024-02-11T15:16:18.916Z,9.73
2024-02-11T15:21:40.842Z,7.40
2024-02-11T15:27:02.739Z,5.72
2024-02-11T15:32:28.264Z,5.97
2024-02-11T15:37:52.357Z,6.13
2024-02-11T15:43:15.191Z,6.15
2024-02-11T15:48:37.214Z,6.20
2024-02-11T15:53:59.224Z,6.45
2024-02-11T15:59:20.970Z,6.15
2024-02-11T16:04:44.244Z,6.93
2024-02-11T16:10:11.882Z,7.03
2024-02-11T16:15:34.407Z,7.40
2024-02-11T16:20:58.782Z,7.53
2024-02-11T16:26:21.631Z,7.55
2024-02-11T16:31:43.885Z,7.63
2024-02-11T16:37:05.622Z,7.40
2024-02-11T16:42:27.222Z,8.05
2024-02-11T16:47:49.695Z,9.18
2024-02-11T16:53:11.585Z,9.27
2024-02-11T16:58:34.384Z,10.45
2024-02-11T17:04:01.261Z,11.18
2024-02-11T17:09:23.075Z,11.60
2024-02-11T17:14:46.251Z,12.15
2024-02-11T17:20:09.268Z,11.85
2024-02-11T17:25:31.287Z,12.32
2024-02-11T17:30:55.955Z,13.98
2024-02-11T17:36:18.178Z,15.27
2024-02-11T17:41:50.475Z,15.30
2024-02-11T17:47:12.217Z,16.58
2024-02-11T17:52:37.297Z,18.08
2024-02-11T17:58:00.451Z,18.70
2024-02-11T18:03:23.608Z,18.42
2024-02-11T18:08:45.302Z,19.58
2024-02-11T18:14:09.289Z,20.98
2024-02-11T18:19:32.608Z,21.60
2024-02-11T18:24:55.402Z,23.20
2024-02-11T18:30:17.007Z,23.52
2024-02-11T18:35:39.019Z,23.23
2024-02-11T18:41:01.891Z,24.15
2024-02-11T18:46:23.859Z,23.35
2024-02-11T18:51:45.595Z,24.15
2024-02-11T18:57:14.402Z,25.25
2024-02-11T19:02:36.244Z,26.17
2024-02-11T19:07:58.066Z,25.95
2024-02-11T19:13:20.308Z,26.10
2024-02-11T19:18:42.134Z,26.45
2024-02-11T19:24:04.024Z,27.40
2024-02-11T19:29:26.912Z,27.95
2024-02-11T19:34:49.506Z,26.65
2024-02-11T19:40:14.486Z,27.75
2024-02-11T19:45:38.006Z,28.83
2024-02-11T19:51:00.293Z,28.50
2024-02-11T19:56:22.287Z,28.08
2024-02-11T20:01:47.773Z,29.35
2024-02-11T20:07:09.602Z,28.92
2024-02-11T20:12:31.360Z,30.20
2024-02-11T20:17:54.304Z,29.33
2024-02-11T20:23:17.420Z,31.77
2024-02-11T20:28:40.233Z,29.73
2024-02-11T20:34:02.099Z,30.13
2024-02-11T20:39:24.031Z,31.25
2024-02-11T20:44:46.507Z,30.17
2024-02-11T20:50:09.910Z,30.23
2024-02-11T20:55:31.633Z,30.35
2024-02-11T21:00:53.457Z,30.73
2024-02-11T21:06:16.177Z,30.05
2024-02-11T21:11:38.765Z,31.30
2024-02-11T21:17:00.596Z,30.08
2024-02-11T21:22:23.853Z,31.48
2024-02-11T21:27:53.268Z,31.60
2024-02-11T21:33:21.248Z,30.05
2024-02-11T21:38:44.377Z,32.08
2024-02-11T21:44:09.807Z,31.33
2024-02-11T21:49:32.577Z,31.83
2024-02-11T21:54:54.289Z,31.83
2024-02-11T22:00:16.413Z,30.20
2024-02-11T22:05:38.570Z,31.67
2024-02-11T22:11:00.624Z,31.50
2024-02-11T22:16:22.242Z,31.17
2024-02-11T22:21:44.986Z,31.00
2024-02-11T22:27:07.353Z,30.48
2024-02-11T22:32:29.338Z,29.38
2024-02-11T22:37:51.502Z,29.10
2024-02-11T22:43:13.407Z,29.88
2024-02-11T22:48:35.649Z,29.00
2024-02-11T22:53:57.438Z,29.52
2024-02-11T22:59:19.055Z,30.73
2024-02-11T23:04:41.197Z,29.48
2024-02-11T23:10:02.950Z,28.23
2024-02-11T23:15:24.635Z,29.25
2024-02-11T23:20:46.362Z,27.83
2024-02-11T23:26:08.470Z,28.42
2024-02-11T23:31:30.491Z,27.45
2024-02-11T23:36:52.291Z,27.17
2024-02-11T23:42:14.165Z,27.63
2024-02-11T23:47:37.200Z,26.50
2024-02-11T23:52:59.142Z,26.90
2024-02-11T23:58:21.142Z,27.10
